sensor_id;sensor_type;location;lat;lon;timestamp;P1;durP1;ratioP1;P2;durP2;ratioP2
63379;SDS011;53160;55.014;73.156;2023-04-03T00:00:10;16.40;;;14.80;;
63379;SDS011;53160;55.014;73.156;2023-04-03T00:02:36;14.80;;;12.80;;
63379;SDS011;53160;55.014;73.156;2023-04-03T00:05:02;17.40;;;12.20;;
63379;SDS011;53160;55.014;73.156;2023-04-03T00:12:59;12.60;;;11.20;;
63379;SDS011;53160;55.014;73.156;2023-04-03T00:15:25;8.60;;;8.00;;
63379;SDS011;53160;55.014;73.156;2023-04-03T00:17:51;12.25;;;11.00;;
63379;SDS011;53160;55.014;73.156;2023-04-03T00:20:17;13.80;;;12.60;;
63379;SDS011;53160;55.014;73.156;2023-04-03T00:22:50;14.00;;;11.80;;
63379;SDS011;53160;55.014;73.156;2023-04-03T00:25:16;13.80;;;12.80;;
63379;SDS011;53160;55.014;73.156;2023-04-03T00:27:42;11.50;;;9.75;;
63379;SDS011;53160;55.014;73.156;2023-04-03T00:30:09;18.00;;;15.40;;
63379;SDS011;53160;55.014;73.156;2023-04-03T00:32:36;15.80;;;11.00;;
63379;SDS011;53160;55.014;73.156;2023-04-03T00:35:21;15.40;;;12.20;;
63379;SDS011;53160;55.014;73.156;2023-04-03T00:37:47;13.00;;;12.40;;
63379;SDS011;53160;55.014;73.156;2023-04-03T00:40:14;12.40;;;11.20;;
63379;SDS011;53160;55.014;73.156;2023-04-03T00:42:48;18.80;;;14.00;;
63379;SDS011;53160;55.014;73.156;2023-04-03T00:47:50;15.50;;;13.50;;
63379;SDS011;53160;55.014;73.156;2023-04-03T00:54:01;15.60;;;13.20;;
63379;SDS011;53160;55.014;73.156;2023-04-03T00:56:38;11.80;;;10.40;;
63379;SDS011;53160;55.014;73.156;2023-04-03T00:59:13;17.80;;;16.60;;
63379;SDS011;53160;55.014;73.156;2023-04-03T01:04:35;18.80;;;16.00;;
63379;SDS011;53160;55.014;73.156;2023-04-03T01:07:24;22.60;;;17.40;;
63379;SDS011;53160;55.014;73.156;2023-04-03T01:09:53;21.60;;;17.80;;
63379;SDS011;53160;55.014;73.156;2023-04-03T01:12:22;15.40;;;13.40;;
63379;SDS011;53160;55.014;73.156;2023-04-03T01:14:50;9.20;;;9.20;;
63379;SDS011;53160;55.014;73.156;2023-04-03T01:19:49;18.80;;;15.40;;
63379;SDS011;53160;55.014;73.156;2023-04-03T01:22:19;17.80;;;15.00;;
63379;SDS011;53160;55.014;73.156;2023-04-03T01:24:49;8.60;;;7.60;;
63379;SDS011;53160;55.014;73.156;2023-04-03T01:27:26;16.60;;;15.20;;
63379;SDS011;53160;55.014;73.156;2023-04-03T01:29:52;21.40;;;17.80;;
63379;SDS011;53160;55.014;73.156;2023-04-03T01:32:19;17.00;;;16.60;;
63379;SDS011;53160;55.014;73.156;2023-04-03T01:34:46;33.40;;;26.60;;
63379;SDS011;53160;55.014;73.156;2023-04-03T01:37:12;27.00;;;16.80;;
63379;SDS011;53160;55.014;73.156;2023-04-03T01:39:38;15.80;;;15.40;;
63379;SDS011;53160;55.014;73.156;2023-04-03T01:42:12;22.20;;;19.80;;
63379;SDS011;53160;55.014;73.156;2023-04-03T01:44:42;18.80;;;17.40;;
63379;SDS011;53160;55.014;73.156;2023-04-03T01:47:08;14.00;;;14.00;;
63379;SDS011;53160;55.014;73.156;2023-04-03T01:49:44;17.20;;;14.40;;
63379;SDS011;53160;55.014;73.156;2023-04-03T01:52:10;13.00;;;10.20;;
63379;SDS011;53160;55.014;73.156;2023-04-03T01:54:36;16.40;;;15.60;;
63379;SDS011;53160;55.014;73.156;2023-04-03T01:57:02;9.40;;;8.40;;
63379;SDS011;53160;55.014;73.156;2023-04-03T01:59:29;6.80;;;4.00;;
63379;SDS011;53160;55.014;73.156;2023-04-03T02:02:13;12.20;;;9.40;;
63379;SDS011;53160;55.014;73.156;2023-04-03T02:04:59;14.60;;;12.40;;
63379;SDS011;53160;55.014;73.156;2023-04-03T02:07:25;24.20;;;21.00;;
63379;SDS011;53160;55.014;73.156;2023-04-03T02:09:54;29.00;;;26.60;;
63379;SDS011;53160;55.014;73.156;2023-04-03T02:12:20;17.20;;;15.00;;
63379;SDS011;53160;55.014;73.156;2023-04-03T02:14:46;13.60;;;11.00;;
63379;SDS011;53160;55.014;73.156;2023-04-03T02:17:21;21.80;;;18.20;;
63379;SDS011;53160;55.014;73.156;2023-04-03T02:19:47;22.40;;;16.60;;
63379;SDS011;53160;55.014;73.156;2023-04-03T02:22:13;20.40;;;15.20;;
63379;SDS011;53160;55.014;73.156;2023-04-03T02:24:39;24.00;;;18.60;;
63379;SDS011;53160;55.014;73.156;2023-04-03T02:27:08;17.60;;;15.00;;
63379;SDS011;53160;55.014;73.156;2023-04-03T02:29:34;17.60;;;16.20;;
63379;SDS011;53160;55.014;73.156;2023-04-03T02:32:10;14.60;;;9.40;;
63379;SDS011;53160;55.014;73.156;2023-04-03T02:34:42;17.00;;;13.80;;
63379;SDS011;53160;55.014;73.156;2023-04-03T02:37:11;14.80;;;11.40;;
63379;SDS011;53160;55.014;73.156;2023-04-03T02:39:47;10.20;;;9.80;;
63379;SDS011;53160;55.014;73.156;2023-04-03T02:42:14;11.20;;;10.80;;
63379;SDS011;53160;55.014;73.156;2023-04-03T02:44:40;16.40;;;11.80;;
63379;SDS011;53160;55.014;73.156;2023-04-03T02:47:08;9.00;;;7.80;;
63379;SDS011;53160;55.014;73.156;2023-04-03T02:49:53;8.60;;;8.60;;
63379;SDS011;53160;55.014;73.156;2023-04-03T02:52:19;12.50;;;10.50;;
63379;SDS011;53160;55.014;73.156;2023-04-03T02:55:13;9.00;;;7.40;;
63379;SDS011;53160;55.014;73.156;2023-04-03T02:57:43;6.80;;;5.00;;
63379;SDS011;53160;55.014;73.156;2023-04-03T03:00:09;7.40;;;7.40;;
63379;SDS011;53160;55.014;73.156;2023-04-03T03:02:41;11.20;;;10.40;;
63379;SDS011;53160;55.014;73.156;2023-04-03T03:07:52;15.80;;;8.60;;
63379;SDS011;53160;55.014;73.156;2023-04-03T03:10:18;7.60;;;6.80;;
63379;SDS011;53160;55.014;73.156;2023-04-03T03:12:45;14.80;;;9.80;;
63379;SDS011;53160;55.014;73.156;2023-04-03T03:15:30;11.00;;;6.00;;
63379;SDS011;53160;55.014;73.156;2023-04-03T03:17:56;12.80;;;10.20;;
63379;SDS011;53160;55.014;73.156;2023-04-03T03:20:22;10.25;;;9.00;;
63379;SDS011;53160;55.014;73.156;2023-04-03T03:22:49;13.00;;;10.80;;
63379;SDS011;53160;55.014;73.156;2023-04-03T03:25:37;11.40;;;9.00;;
63379;SDS011;53160;55.014;73.156;2023-04-03T03:28:21;11.40;;;11.40;;
63379;SDS011;53160;55.014;73.156;2023-04-03T03:30:58;11.60;;;10.40;;
63379;SDS011;53160;55.014;73.156;2023-04-03T03:33:44;12.60;;;8.00;;
63379;SDS011;53160;55.014;73.156;2023-04-03T03:36:10;7.80;;;7.40;;
63379;SDS011;53160;55.014;73.156;2023-04-03T03:38:36;6.80;;;6.00;;
63379;SDS011;53160;55.014;73.156;2023-04-03T03:41:03;15.20;;;9.40;;
63379;SDS011;53160;55.014;73.156;2023-04-03T03:43:37;13.20;;;9.80;;
63379;SDS011;53160;55.014;73.156;2023-04-03T03:46:05;22.20;;;15.40;;
63379;SDS011;53160;55.014;73.156;2023-04-03T03:48:42;24.00;;;14.80;;
63379;SDS011;53160;55.014;73.156;2023-04-03T03:51:09;21.00;;;14.40;;
63379;SDS011;53160;55.014;73.156;2023-04-03T03:56:44;6.40;;;5.60;;
63379;SDS011;53160;55.014;73.156;2023-04-03T03:59:16;9.00;;;8.00;;
63379;SDS011;53160;55.014;73.156;2023-04-03T04:01:42;8.00;;;8.00;;
63379;SDS011;53160;55.014;73.156;2023-04-03T04:04:16;9.80;;;8.60;;
63379;SDS011;53160;55.014;73.156;2023-04-03T04:09:30;11.00;;;6.75;;
63379;SDS011;53160;55.014;73.156;2023-04-03T04:11:56;13.00;;;8.00;;
63379;SDS011;53160;55.014;73.156;2023-04-03T04:14:46;15.40;;;12.20;;
63379;SDS011;53160;55.014;73.156;2023-04-03T04:17:14;7.80;;;7.80;;
63379;SDS011;53160;55.014;73.156;2023-04-03T04:19:42;11.40;;;11.40;;
63379;SDS011;53160;55.014;73.156;2023-04-03T04:22:08;9.60;;;9.00;;
63379;SDS011;53160;55.014;73.156;2023-04-03T04:24:35;12.00;;;9.60;;
63379;SDS011;53160;55.014;73.156;2023-04-03T04:29:47;8.00;;;8.00;;
63379;SDS011;53160;55.014;73.156;2023-04-03T04:32:31;8.60;;;6.20;;
63379;SDS011;53160;55.014;73.156;2023-04-03T04:34:58;9.80;;;8.80;;
63379;SDS011;53160;55.014;73.156;2023-04-03T04:37:50;10.80;;;10.80;;
63379;SDS011;53160;55.014;73.156;2023-04-03T04:40:17;9.40;;;8.60;;
63379;SDS011;53160;55.014;73.156;2023-04-03T04:42:48;11.00;;;8.80;;
63379;SDS011;53160;55.014;73.156;2023-04-03T04:45:19;9.40;;;7.60;;
63379;SDS011;53160;55.014;73.156;2023-04-03T04:47:47;10.75;;;9.00;;
63379;SDS011;53160;55.014;73.156;2023-04-03T04:50:14;11.20;;;9.80;;
63379;SDS011;53160;55.014;73.156;2023-04-03T04:52:45;7.00;;;6.60;;
63379;SDS011;53160;55.014;73.156;2023-04-03T04:55:11;5.00;;;5.00;;
63379;SDS011;53160;55.014;73.156;2023-04-03T04:57:55;10.40;;;8.80;;
63379;SDS011;53160;55.014;73.156;2023-04-03T05:00:40;21.80;;;13.80;;
63379;SDS011;53160;55.014;73.156;2023-04-03T05:05:51;11.40;;;10.20;;
63379;SDS011;53160;55.014;73.156;2023-04-03T05:08:17;8.67;;;8.00;;
63379;SDS011;53160;55.014;73.156;2023-04-03T05:10:44;4.25;;;4.00;;
63379;SDS011;53160;55.014;73.156;2023-04-03T05:13:11;13.00;;;10.50;;
63379;SDS011;53160;55.014;73.156;2023-04-03T05:15:38;11.20;;;9.60;;
63379;SDS011;53160;55.014;73.156;2023-04-03T05:18:06;30.00;;;28.20;;
63379;SDS011;53160;55.014;73.156;2023-04-03T05:20:52;37.60;;;34.80;;
63379;SDS011;53160;55.014;73.156;2023-04-03T05:26:05;16.25;;;10.00;;
63379;SDS011;53160;55.014;73.156;2023-04-03T05:28:32;14.00;;;11.50;;
63379;SDS011;53160;55.014;73.156;2023-04-03T05:30:59;8.75;;;8.00;;
63379;SDS011;53160;55.014;73.156;2023-04-03T05:33:36;7.75;;;5.25;;
63379;SDS011;53160;55.014;73.156;2023-04-03T05:36:05;10.75;;;9.75;;
63379;SDS011;53160;55.014;73.156;2023-04-03T05:41:23;7.50;;;6.00;;
63379;SDS011;53160;55.014;73.156;2023-04-03T05:43:54;8.75;;;7.25;;
63379;SDS011;53160;55.014;73.156;2023-04-03T05:46:27;3.00;;;3.00;;
63379;SDS011;53160;55.014;73.156;2023-04-03T05:49:06;7.00;;;5.00;;
63379;SDS011;53160;55.014;73.156;2023-04-03T05:51:35;8.75;;;5.25;;
63379;SDS011;53160;55.014;73.156;2023-04-03T05:54:13;8.00;;;7.25;;
63379;SDS011;53160;55.014;73.156;2023-04-03T05:56:42;6.50;;;4.50;;
63379;SDS011;53160;55.014;73.156;2023-04-03T05:59:13;7.50;;;4.25;;
63379;SDS011;53160;55.014;73.156;2023-04-03T06:04:24;8.00;;;5.00;;
63379;SDS011;53160;55.014;73.156;2023-04-03T06:06:54;31.20;;;18.40;;
63379;SDS011;53160;55.014;73.156;2023-04-03T06:09:21;7.50;;;5.00;;
63379;SDS011;53160;55.014;73.156;2023-04-03T06:11:48;6.25;;;5.00;;
63379;SDS011;53160;55.014;73.156;2023-04-03T06:14:15;6.25;;;5.50;;
63379;SDS011;53160;55.014;73.156;2023-04-03T06:19:26;5.00;;;5.00;;
63379;SDS011;53160;55.014;73.156;2023-04-03T06:22:10;16.50;;;11.50;;
63379;SDS011;53160;55.014;73.156;2023-04-03T06:24:37;9.50;;;8.00;;
63379;SDS011;53160;55.014;73.156;2023-04-03T06:27:04;13.50;;;11.50;;
63379;SDS011;53160;55.014;73.156;2023-04-03T06:29:30;12.50;;;8.75;;
63379;SDS011;53160;55.014;73.156;2023-04-03T06:31:56;3.50;;;3.50;;
63379;SDS011;53160;55.014;73.156;2023-04-03T06:34:22;7.25;;;6.50;;
63379;SDS011;53160;55.014;73.156;2023-04-03T06:36:48;6.00;;;5.33;;
63379;SDS011;53160;55.014;73.156;2023-04-03T06:39:17;6.00;;;5.25;;
63379;SDS011;53160;55.014;73.156;2023-04-03T06:41:43;8.50;;;8.25;;
63379;SDS011;53160;55.014;73.156;2023-04-03T06:44:12;10.00;;;7.00;;
63379;SDS011;53160;55.014;73.156;2023-04-03T06:46:52;7.25;;;6.50;;
63379;SDS011;53160;55.014;73.156;2023-04-03T06:49:19;9.00;;;7.00;;
63379;SDS011;53160;55.014;73.156;2023-04-03T06:54:49;6.75;;;4.75;;
63379;SDS011;53160;55.014;73.156;2023-04-03T06:57:17;17.50;;;12.25;;
63379;SDS011;53160;55.014;73.156;2023-04-03T07:00:03;6.25;;;5.00;;
63379;SDS011;53160;55.014;73.156;2023-04-03T07:02:29;11.25;;;7.75;;
63379;SDS011;53160;55.014;73.156;2023-04-03T07:04:55;8.00;;;7.50;;
63379;SDS011;53160;55.014;73.156;2023-04-03T07:10:25;10.75;;;8.00;;
63379;SDS011;53160;55.014;73.156;2023-04-03T07:12:52;28.00;;;14.00;;
63379;SDS011;53160;55.014;73.156;2023-04-03T07:15:18;14.00;;;10.00;;
63379;SDS011;53160;55.014;73.156;2023-04-03T07:17:44;15.50;;;8.50;;
63379;SDS011;53160;55.014;73.156;2023-04-03T07:20:11;1.00;;;1.00;;
63379;SDS011;53160;55.014;73.156;2023-04-03T07:22:37;6.00;;;5.25;;
63379;SDS011;53160;55.014;73.156;2023-04-03T07:25:09;9.00;;;5.50;;
63379;SDS011;53160;55.014;73.156;2023-04-03T07:27:36;4.75;;;4.75;;
63379;SDS011;53160;55.014;73.156;2023-04-03T07:30:02;7.67;;;7.00;;
63379;SDS011;53160;55.014;73.156;2023-04-03T07:32:28;10.75;;;8.00;;
63379;SDS011;53160;55.014;73.156;2023-04-03T07:35:25;11.80;;;10.60;;
63379;SDS011;53160;55.014;73.156;2023-04-03T07:37:51;16.75;;;9.75;;
63379;SDS011;53160;55.014;73.156;2023-04-03T07:40:19;21.75;;;14.00;;
63379;SDS011;53160;55.014;73.156;2023-04-03T07:42:45;8.00;;;5.00;;
63379;SDS011;53160;55.014;73.156;2023-04-03T07:45:16;7.25;;;6.00;;
63379;SDS011;53160;55.014;73.156;2023-04-03T07:47:42;11.75;;;7.50;;
63379;SDS011;53160;55.014;73.156;2023-04-03T07:50:27;7.50;;;6.50;;
63379;SDS011;53160;55.014;73.156;2023-04-03T07:52:54;12.50;;;8.25;;
63379;SDS011;53160;55.014;73.156;2023-04-03T07:58:13;7.75;;;6.75;;
63379;SDS011;53160;55.014;73.156;2023-04-03T08:00:40;11.50;;;10.00;;
63379;SDS011;53160;55.014;73.156;2023-04-03T08:03:06;6.50;;;5.00;;
63379;SDS011;53160;55.014;73.156;2023-04-03T08:05:37;5.25;;;4.00;;
63379;SDS011;53160;55.014;73.156;2023-04-03T08:08:03;6.25;;;5.00;;
63379;SDS011;53160;55.014;73.156;2023-04-03T08:10:39;4.50;;;4.50;;
63379;SDS011;53160;55.014;73.156;2023-04-03T08:13:24;12.00;;;8.75;;
63379;SDS011;53160;55.014;73.156;2023-04-03T08:15:50;5.75;;;5.50;;
63379;SDS011;53160;55.014;73.156;2023-04-03T08:21:07;5.75;;;5.25;;
63379;SDS011;53160;55.014;73.156;2023-04-03T08:23:44;8.00;;;5.00;;
63379;SDS011;53160;55.014;73.156;2023-04-03T08:26:12;7.75;;;5.25;;
63379;SDS011;53160;55.014;73.156;2023-04-03T08:28:44;13.75;;;7.50;;
63379;SDS011;53160;55.014;73.156;2023-04-03T08:31:11;5.25;;;4.00;;
63379;SDS011;53160;55.014;73.156;2023-04-03T08:33:38;4.00;;;3.75;;
63379;SDS011;53160;55.014;73.156;2023-04-03T08:36:04;9.50;;;7.50;;
63379;SDS011;53160;55.014;73.156;2023-04-03T08:38:31;4.25;;;4.25;;
63379;SDS011;53160;55.014;73.156;2023-04-03T08:41:11;7.75;;;7.00;;
63379;SDS011;53160;55.014;73.156;2023-04-03T08:43:48;2.00;;;1.75;;
63379;SDS011;53160;55.014;73.156;2023-04-03T08:46:47;9.50;;;4.50;;
63379;SDS011;53160;55.014;73.156;2023-04-03T08:52:35;10.50;;;6.75;;
63379;SDS011;53160;55.014;73.156;2023-04-03T08:55:28;7.00;;;4.00;;
63379;SDS011;53160;55.014;73.156;2023-04-03T08:57:59;19.50;;;9.75;;
63379;SDS011;53160;55.014;73.156;2023-04-03T09:00:28;2.00;;;1.00;;
63379;SDS011;53160;55.014;73.156;2023-04-03T09:02:56;4.00;;;3.00;;
63379;SDS011;53160;55.014;73.156;2023-04-03T09:11:11;2.00;;;2.00;;
63379;SDS011;53160;55.014;73.156;2023-04-03T09:16:55;7.00;;;4.50;;
63379;SDS011;53160;55.014;73.156;2023-04-03T09:22:18;1.75;;;1.00;;
63379;SDS011;53160;55.014;73.156;2023-04-03T09:27:35;7.75;;;6.00;;
63379;SDS011;53160;55.014;73.156;2023-04-03T09:30:02;5.00;;;4.75;;
63379;SDS011;53160;55.014;73.156;2023-04-03T09:32:35;4.00;;;3.00;;
63379;SDS011;53160;55.014;73.156;2023-04-03T09:37:45;4.75;;;4.00;;
63379;SDS011;53160;55.014;73.156;2023-04-03T09:49:03;6.00;;;4.50;;
63379;SDS011;53160;55.014;73.156;2023-04-03T09:51:29;5.25;;;4.50;;
63379;SDS011;53160;55.014;73.156;2023-04-03T09:53:56;2.75;;;2.50;;
63379;SDS011;53160;55.014;73.156;2023-04-03T10:01:31;3.00;;;2.25;;
63379;SDS011;53160;55.014;73.156;2023-04-03T10:04:08;12.25;;;9.00;;
63379;SDS011;53160;55.014;73.156;2023-04-03T10:06:39;5.50;;;4.75;;
63379;SDS011;53160;55.014;73.156;2023-04-03T10:09:14;5.00;;;4.00;;
63379;SDS011;53160;55.014;73.156;2023-04-03T10:12:03;8.00;;;7.00;;
63379;SDS011;53160;55.014;73.156;2023-04-03T10:14:33;8.50;;;4.50;;
63379;SDS011;53160;55.014;73.156;2023-04-03T10:19:37;4.00;;;1.50;;
63379;SDS011;53160;55.014;73.156;2023-04-03T10:44:14;3.00;;;2.00;;
63379;SDS011;53160;55.014;73.156;2023-04-03T10:46:45;0.00;;;0.00;;
63379;SDS011;53160;55.014;73.156;2023-04-03T10:49:22;3.00;;;2.00;;
63379;SDS011;53160;55.014;73.156;2023-04-03T10:52:02;5.00;;;4.00;;
63379;SDS011;53160;55.014;73.156;2023-04-03T10:54:41;5.25;;;3.00;;
63379;SDS011;53160;55.014;73.156;2023-04-03T10:57:47;6.25;;;4.50;;
63379;SDS011;53160;55.014;73.156;2023-04-03T11:00:36;5.50;;;4.25;;
63379;SDS011;53160;55.014;73.156;2023-04-03T11:03:27;3.75;;;3.00;;
63379;SDS011;53160;55.014;73.156;2023-04-03T11:05:51;3.75;;;2.00;;
63379;SDS011;53160;55.014;73.156;2023-04-03T11:08:43;0.00;;;0.00;;
63379;SDS011;53160;55.014;73.156;2023-04-03T11:11:20;2.50;;;2.00;;
63379;SDS011;53160;55.014;73.156;2023-04-03T11:16:29;5.00;;;3.00;;
63379;SDS011;53160;55.014;73.156;2023-04-03T11:19:03;3.00;;;3.00;;
63379;SDS011;53160;55.014;73.156;2023-04-03T11:21:35;7.50;;;5.50;;
63379;SDS011;53160;55.014;73.156;2023-04-03T11:24:05;6.25;;;4.25;;
63379;SDS011;53160;55.014;73.156;2023-04-03T11:26:35;2.75;;;2.50;;
63379;SDS011;53160;55.014;73.156;2023-04-03T11:29:04;20.00;;;12.25;;
63379;SDS011;53160;55.014;73.156;2023-04-03T11:34:56;4.75;;;4.00;;
63379;SDS011;53160;55.014;73.156;2023-04-03T11:37:29;6.75;;;4.00;;
63379;SDS011;53160;55.014;73.156;2023-04-03T11:48:05;5.50;;;4.50;;
63379;SDS011;53160;55.014;73.156;2023-04-03T12:04:07;6.00;;;5.00;;
63379;SDS011;53160;55.014;73.156;2023-04-03T12:09:29;5.00;;;4.50;;
63379;SDS011;53160;55.014;73.156;2023-04-03T12:11:57;8.75;;;6.75;;
63379;SDS011;53160;55.014;73.156;2023-04-03T12:14:25;9.00;;;8.00;;
63379;SDS011;53160;55.014;73.156;2023-04-03T12:16:56;20.00;;;14.75;;
63379;SDS011;53160;55.014;73.156;2023-04-03T12:24:26;8.50;;;5.50;;
63379;SDS011;53160;55.014;73.156;2023-04-03T12:29:23;12.75;;;8.75;;
63379;SDS011;53160;55.014;73.156;2023-04-03T12:40:15;8.25;;;6.50;;
63379;SDS011;53160;55.014;73.156;2023-04-03T12:42:47;7.25;;;5.25;;
63379;SDS011;53160;55.014;73.156;2023-04-03T12:45:22;9.00;;;7.00;;
63379;SDS011;53160;55.014;73.156;2023-04-03T12:47:54;6.00;;;5.00;;
63379;SDS011;53160;55.014;73.156;2023-04-03T12:50:25;6.75;;;5.75;;
63379;SDS011;53160;55.014;73.156;2023-04-03T12:53:04;7.75;;;5.75;;
63379;SDS011;53160;55.014;73.156;2023-04-03T12:55:55;13.50;;;9.50;;
63379;SDS011;53160;55.014;73.156;2023-04-03T12:58:40;6.25;;;5.00;;
63379;SDS011;53160;55.014;73.156;2023-04-03T13:01:17;5.00;;;4.75;;
63379;SDS011;53160;55.014;73.156;2023-04-03T13:03:45;7.00;;;5.00;;
63379;SDS011;53160;55.014;73.156;2023-04-03T13:06:14;14.50;;;9.75;;
63379;SDS011;53160;55.014;73.156;2023-04-03T13:08:52;12.50;;;9.75;;
63379;SDS011;53160;55.014;73.156;2023-04-03T13:11:35;12.25;;;10.00;;
63379;SDS011;53160;55.014;73.156;2023-04-03T13:14:04;7.50;;;6.25;;
63379;SDS011;53160;55.014;73.156;2023-04-03T13:16:33;9.25;;;6.50;;
63379;SDS011;53160;55.014;73.156;2023-04-03T13:19:03;7.25;;;5.50;;
63379;SDS011;53160;55.014;73.156;2023-04-03T13:21:30;11.25;;;6.00;;
63379;SDS011;53160;55.014;73.156;2023-04-03T13:23:58;18.80;;;10.80;;
63379;SDS011;53160;55.014;73.156;2023-04-03T13:26:26;12.00;;;7.75;;
63379;SDS011;53160;55.014;73.156;2023-04-03T13:28:54;23.60;;;17.40;;
63379;SDS011;53160;55.014;73.156;2023-04-03T13:33:53;26.25;;;14.50;;
63379;SDS011;53160;55.014;73.156;2023-04-03T13:36:22;11.00;;;6.40;;
63379;SDS011;53160;55.014;73.156;2023-04-03T13:41:42;12.80;;;10.00;;
63379;SDS011;53160;55.014;73.156;2023-04-03T13:49:38;21.20;;;13.40;;
63379;SDS011;53160;55.014;73.156;2023-04-03T13:54:47;20.20;;;16.60;;
63379;SDS011;53160;55.014;73.156;2023-04-03T13:57:17;23.20;;;14.00;;
63379;SDS011;53160;55.014;73.156;2023-04-03T13:59:43;59.00;;;28.80;;
63379;SDS011;53160;55.014;73.156;2023-04-03T14:04:47;39.40;;;28.40;;
63379;SDS011;53160;55.014;73.156;2023-04-03T14:07:18;37.20;;;27.60;;
63379;SDS011;53160;55.014;73.156;2023-04-03T14:09:51;42.20;;;26.80;;
63379;SDS011;53160;55.014;73.156;2023-04-03T14:12:37;30.60;;;20.00;;
63379;SDS011;53160;55.014;73.156;2023-04-03T14:15:23;49.60;;;37.40;;
63379;SDS011;53160;55.014;73.156;2023-04-03T14:17:54;40.40;;;31.60;;
63379;SDS011;53160;55.014;73.156;2023-04-03T14:20:22;33.40;;;24.00;;
63379;SDS011;53160;55.014;73.156;2023-04-03T14:22:53;27.80;;;22.40;;
63379;SDS011;53160;55.014;73.156;2023-04-03T14:25:20;41.00;;;26.40;;
63379;SDS011;53160;55.014;73.156;2023-04-03T14:27:56;35.80;;;26.60;;
63379;SDS011;53160;55.014;73.156;2023-04-03T14:32:48;24.50;;;20.25;;
63379;SDS011;53160;55.014;73.156;2023-04-03T14:35:24;30.20;;;20.80;;
63379;SDS011;53160;55.014;73.156;2023-04-03T14:37:51;25.60;;;19.80;;
63379;SDS011;53160;55.014;73.156;2023-04-03T14:40:19;25.80;;;19.40;;
63379;SDS011;53160;55.014;73.156;2023-04-03T14:42:45;18.20;;;16.60;;
63379;SDS011;53160;55.014;73.156;2023-04-03T14:45:30;24.60;;;18.60;;
63379;SDS011;53160;55.014;73.156;2023-04-03T14:48:27;27.60;;;20.80;;
63379;SDS011;53160;55.014;73.156;2023-04-03T14:50:55;35.80;;;25.80;;
63379;SDS011;53160;55.014;73.156;2023-04-03T14:53:32;42.20;;;24.60;;
63379;SDS011;53160;55.014;73.156;2023-04-03T14:55:59;34.80;;;26.00;;
63379;SDS011;53160;55.014;73.156;2023-04-03T14:58:44;29.60;;;23.80;;
63379;SDS011;53160;55.014;73.156;2023-04-03T15:01:11;34.20;;;25.60;;
63379;SDS011;53160;55.014;73.156;2023-04-03T15:03:47;34.60;;;27.20;;
63379;SDS011;53160;55.014;73.156;2023-04-03T15:06:32;27.40;;;17.40;;
63379;SDS011;53160;55.014;73.156;2023-04-03T15:08:59;38.20;;;26.40;;
63379;SDS011;53160;55.014;73.156;2023-04-03T15:11:31;41.60;;;32.80;;
63379;SDS011;53160;55.014;73.156;2023-04-03T15:14:08;38.00;;;31.60;;
63379;SDS011;53160;55.014;73.156;2023-04-03T15:19:19;41.80;;;29.60;;
63379;SDS011;53160;55.014;73.156;2023-04-03T15:21:45;43.80;;;32.80;;
63379;SDS011;53160;55.014;73.156;2023-04-03T15:24:12;47.00;;;35.40;;
63379;SDS011;53160;55.014;73.156;2023-04-03T15:27:04;46.40;;;37.00;;
63379;SDS011;53160;55.014;73.156;2023-04-03T15:29:33;53.60;;;38.40;;
63379;SDS011;53160;55.014;73.156;2023-04-03T15:31:59;45.60;;;38.40;;
63379;SDS011;53160;55.014;73.156;2023-04-03T15:34:26;42.80;;;35.20;;
63379;SDS011;53160;55.014;73.156;2023-04-03T15:36:51;35.00;;;27.25;;
63379;SDS011;53160;55.014;73.156;2023-04-03T15:39:30;35.00;;;30.20;;
63379;SDS011;53160;55.014;73.156;2023-04-03T15:41:57;32.20;;;26.60;;
63379;SDS011;53160;55.014;73.156;2023-04-03T15:44:25;31.00;;;27.60;;
63379;SDS011;53160;55.014;73.156;2023-04-03T15:46:57;28.60;;;25.80;;
63379;SDS011;53160;55.014;73.156;2023-04-03T15:52:08;38.40;;;29.20;;
63379;SDS011;53160;55.014;73.156;2023-04-03T15:54:34;26.20;;;22.40;;
63379;SDS011;53160;55.014;73.156;2023-04-03T15:57:00;26.60;;;25.20;;
63379;SDS011;53160;55.014;73.156;2023-04-03T15:59:26;23.80;;;19.80;;
63379;SDS011;53160;55.014;73.156;2023-04-03T16:01:54;39.60;;;25.40;;
63379;SDS011;53160;55.014;73.156;2023-04-03T16:07:20;28.00;;;21.40;;
63379;SDS011;53160;55.014;73.156;2023-04-03T16:09:52;31.60;;;25.40;;
63379;SDS011;53160;55.014;73.156;2023-04-03T16:12:23;32.20;;;27.80;;
63379;SDS011;53160;55.014;73.156;2023-04-03T16:14:49;36.60;;;33.00;;
63379;SDS011;53160;55.014;73.156;2023-04-03T16:17:20;48.60;;;34.80;;
63379;SDS011;53160;55.014;73.156;2023-04-03T16:19:46;37.50;;;30.25;;
63379;SDS011;53160;55.014;73.156;2023-04-03T16:22:12;38.80;;;34.40;;
63379;SDS011;53160;55.014;73.156;2023-04-03T16:24:38;45.80;;;35.20;;
63379;SDS011;53160;55.014;73.156;2023-04-03T16:27:14;47.80;;;36.80;;
63379;SDS011;53160;55.014;73.156;2023-04-03T16:29:50;34.60;;;27.80;;
63379;SDS011;53160;55.014;73.156;2023-04-03T16:32:27;45.40;;;34.60;;
63379;SDS011;53160;55.014;73.156;2023-04-03T16:35:05;41.20;;;36.00;;
63379;SDS011;53160;55.014;73.156;2023-04-03T16:37:53;41.80;;;31.60;;
63379;SDS011;53160;55.014;73.156;2023-04-03T16:40:24;39.20;;;29.60;;
63379;SDS011;53160;55.014;73.156;2023-04-03T16:43:09;44.80;;;35.60;;
63379;SDS011;53160;55.014;73.156;2023-04-03T16:45:43;36.40;;;31.40;;
63379;SDS011;53160;55.014;73.156;2023-04-03T16:48:14;43.40;;;36.40;;
63379;SDS011;53160;55.014;73.156;2023-04-03T16:50:40;43.00;;;39.00;;
63379;SDS011;53160;55.014;73.156;2023-04-03T16:53:25;44.60;;;37.00;;
63379;SDS011;53160;55.014;73.156;2023-04-03T16:56:01;43.40;;;37.60;;
63379;SDS011;53160;55.014;73.156;2023-04-03T16:58:27;45.80;;;35.80;;
63379;SDS011;53160;55.014;73.156;2023-04-03T17:00:59;35.60;;;30.80;;
63379;SDS011;53160;55.014;73.156;2023-04-03T17:03:43;45.80;;;35.00;;
63379;SDS011;53160;55.014;73.156;2023-04-03T17:06:52;47.60;;;37.60;;
63379;SDS011;53160;55.014;73.156;2023-04-03T17:09:18;38.40;;;36.00;;
63379;SDS011;53160;55.014;73.156;2023-04-03T17:11:48;35.60;;;34.00;;
63379;SDS011;53160;55.014;73.156;2023-04-03T17:14:19;46.60;;;36.00;;
63379;SDS011;53160;55.014;73.156;2023-04-03T17:16:46;46.20;;;37.40;;
63379;SDS011;53160;55.014;73.156;2023-04-03T17:19:31;39.20;;;36.60;;
63379;SDS011;53160;55.014;73.156;2023-04-03T17:21:57;38.40;;;34.20;;
63379;SDS011;53160;55.014;73.156;2023-04-03T17:24:23;37.20;;;33.20;;
63379;SDS011;53160;55.014;73.156;2023-04-03T17:26:59;37.60;;;34.60;;
63379;SDS011;53160;55.014;73.156;2023-04-03T17:29:35;32.80;;;29.00;;
63379;SDS011;53160;55.014;73.156;2023-04-03T17:35:44;33.40;;;21.20;;
63379;SDS011;53160;55.014;73.156;2023-04-03T17:38:10;28.80;;;26.60;;
63379;SDS011;53160;55.014;73.156;2023-04-03T17:40:56;34.00;;;30.80;;
63379;SDS011;53160;55.014;73.156;2023-04-03T17:43:24;33.00;;;27.80;;
63379;SDS011;53160;55.014;73.156;2023-04-03T17:46:09;33.80;;;29.60;;
63379;SDS011;53160;55.014;73.156;2023-04-03T17:48:36;31.20;;;28.00;;
63379;SDS011;53160;55.014;73.156;2023-04-03T17:51:25;29.40;;;26.20;;
63379;SDS011;53160;55.014;73.156;2023-04-03T17:56:35;27.20;;;23.00;;
63379;SDS011;53160;55.014;73.156;2023-04-03T17:59:01;32.00;;;29.00;;